Aérodrome :
LOGIN :

S'inscrire | Disclaimer

   EN    FR    IT 

 










Légende :    VFR   VFR Marginal   IFR   IFR Intensif   IFR Très Intensif
Visi : 
Plafond : 
>= 8 km
>= 3000ft
5 à 8 km
1000 à 3000 ft
1500m à 5 km
500 à 1000 ft
800 à 1500m
200 à 500 ft
< 800m
< 200 ft
Symboles :   Orages  Brouillard  Fortes neiges  Fortes précipitations  Vent > 20 kt
SIGMETs :   Divers  Orages  Givrage  Turbulence  Onde Orograph.  Cendres Volcan.







- Altitude de l'aérodrome : 776 ft
- Code IATA : RMS


ETAR - Ramstein Air Base

DERNIER METAR :
  • 231957Z AUTO 00000KT 9999 CLR 13/09 A3002 RMK AO2 SLP167 T01250090 $

METARs EXPIRÉS :
  • 231856Z AUTO 11003KT 9999 CLR 17/09 A3002 RMK AO2 SLP167 T01660085 $
  • 231757Z AUTO 06005KT 9999 CLR 20/09 A3002 RMK AO2 SLP167 T01950085 10213 20191 57007 $

TAF TAF ETAR
Valide du 23 à 18h jusqu'au 25 à 00h UTC


231801Z 2318/2500 VRB06KT 9999 FEW060 QNH2997INS
BECMG 2405/2406 03009KT 9999 SCT050 BKN150 QNH2991INS TX23/2415Z TN03/2404Z
Pas de NOTAMs connus pour ce terrain.



MET'MAP, la Météo Aéronautique d'un coup d'oeil ! - Copyright ORBIFLY Décembre 2007 - Disclaimer

ORBIFLY MET'MAP TEAM :

Programmation & Développement : Alexandra Zaïnal
Conception & Développement : Baudouin d'Aumeries
Co-Programmation & Développement : Marc-Olivier Méhu
Soutien technique & logistique : Manuel Goepfert

Contact : metmap@orbifly.com




SOURCES & CREDITS :

   NOAA